Time,TemperatureF,DewpointF,PressureIn,WindDirection,WindDirectionDegrees,WindSpeedMPH,WindSpeedGustMPH,Humidity,HourlyPrecipIn,Conditions,Clouds,dailyrainin,SolarRadiationWatts/m^2,SoftwareType,DateUTC
2013-01-15 00:02:00,37.0,20.0,-100.00,North,360,3.0,9.0,50,0.00,,,0.01,0.000000,,2013-01-15 08:02:00,
2013-01-15 00:12:00,37.0,20.0,-100.00,North,360,3.0,9.0,50,0.00,,,0.01,0.000000,,2013-01-15 08:12:00,
2013-01-15 00:22:00,37.0,20.0,-100.00,North,360,3.0,9.0,50,0.00,,,0.01,0.000000,,2013-01-15 08:22:00,
2013-01-15 00:43:00,37.0,20.0,-100.00,NW,310,4.0,10.0,50,0.00,,,0.01,0.000000,,2013-01-15 08:43:00,
2013-01-15 00:53:00,37.0,20.0,-100.00,NW,310,4.0,10.0,50,0.00,,,0.01,0.000000,,2013-01-15 08:53:00,
2013-01-15 01:42:00,36.0,19.0,-100.00,South,175,2.0,8.0,49,-99.99,,,0.01,0.000000,,2013-01-15 09:42:00,
2013-01-15 01:52:00,36.0,19.0,-100.00,South,175,2.0,8.0,49,-99.99,,,0.01,0.000000,,2013-01-15 09:52:00,
2013-01-15 02:42:00,37.0,19.0,-100.00,NE,45,6.0,15.0,47,0.00,,,0.01,0.000000,,2013-01-15 10:42:00,
2013-01-15 02:52:00,37.0,19.0,-100.00,NE,45,6.0,15.0,47,0.00,,,0.01,0.000000,,2013-01-15 10:52:00,
2013-01-15 03:02:00,37.0,19.0,-100.00,NE,45,6.0,15.0,47,0.00,,,0.01,0.000000,,2013-01-15 11:02:00,
2013-01-15 03:12:00,37.0,19.0,-100.00,NE,45,6.0,15.0,47,0.00,,,0.01,0.000000,,2013-01-15 11:12:00,
2013-01-15 03:22:00,37.0,19.0,-100.00,NE,45,6.0,15.0,47,0.00,,,0.01,0.000000,,2013-01-15 11:22:00,
2013-01-15 03:43:00,37.0,18.0,-100.00,ESE,120,6.0,18.0,45,0.00,,,0.01,0.000000,,2013-01-15 11:43:00,
2013-01-15 03:53:00,37.0,18.0,-100.00,ESE,120,6.0,18.0,45,0.00,,,0.01,0.000000,,2013-01-15 11:53:00,
2013-01-15 04:12:00,37.0,18.0,-100.00,ESE,120,6.0,18.0,45,0.00,,,0.01,0.000000,,2013-01-15 12:12:00,
2013-01-15 04:22:00,37.0,18.0,-100.00,ESE,120,6.0,18.0,45,0.00,,,0.01,0.000000,,2013-01-15 12:22:00,
2013-01-15 04:43:00,38.0,18.0,-100.00,WNW,303,7.0,19.0,44,0.00,,,0.01,0.000000,,2013-01-15 12:43:00,
2013-01-15 04:53:00,38.0,18.0,-100.00,WNW,303,7.0,19.0,44,0.00,,,0.01,0.000000,,2013-01-15 12:53:00,
2013-01-15 05:12:00,38.0,18.0,-100.00,WNW,303,7.0,19.0,44,0.00,,,0.01,0.000000,,2013-01-15 13:12:00,
2013-01-15 05:22:00,38.0,18.0,-100.00,WNW,303,7.0,19.0,44,0.00,,,0.01,0.000000,,2013-01-15 13:22:00,
2013-01-15 05:43:00,38.0,16.0,-100.00,WNW,301,6.0,11.0,41,0.00,,,0.01,0.000000,,2013-01-15 13:43:00,
2013-01-15 05:53:00,38.0,16.0,-100.00,WNW,301,6.0,11.0,41,0.00,,,0.01,0.000000,,2013-01-15 13:53:00,
2013-01-15 06:12:00,38.0,16.0,-100.00,WNW,301,6.0,11.0,41,0.00,,,0.01,0.000000,,2013-01-15 14:12:00,
2013-01-15 06:22:00,38.0,16.0,-100.00,WNW,301,6.0,11.0,41,0.00,,,0.01,0.000000,,2013-01-15 14:22:00,
2013-01-15 06:43:00,39.0,15.0,-100.00,North,4,2.0,8.0,37,0.00,,,-99.99,0.000000,,2013-01-15 14:43:00,
2013-01-15 07:12:00,39.0,15.0,-100.00,North,4,2.0,8.0,37,0.00,,,-99.99,0.000000,,2013-01-15 15:12:00,
2013-01-15 07:22:00,39.0,15.0,-100.00,North,4,2.0,8.0,37,0.00,,,-99.99,0.000000,,2013-01-15 15:22:00,
2013-01-15 07:43:00,42.0,14.0,-100.00,North,7,3.0,13.0,31,-99.99,,,0.01,3.000000,,2013-01-15 15:43:00,
2013-01-15 07:53:00,42.0,14.0,-100.00,North,7,3.0,13.0,31,-99.99,,,0.01,3.000000,,2013-01-15 15:53:00,
2013-01-15 08:43:00,45.0,16.0,-100.00,WNW,300,4.0,11.0,31,0.00,,,0.01,81.000000,,2013-01-15 16:43:00,
2013-01-15 08:53:00,45.0,16.0,-100.00,WNW,300,4.0,11.0,31,0.00,,,0.01,81.000000,,2013-01-15 16:53:00,
2013-01-15 09:43:00,53.0,19.0,-100.00,SSE,151,4.0,12.0,26,-99.99,,,0.01,304.000000,,2013-01-15 17:43:00,
2013-01-15 09:53:00,53.0,19.0,-100.00,SSE,151,4.0,12.0,26,-99.99,,,0.01,304.000000,,2013-01-15 17:53:00,
2013-01-15 10:43:00,60.0,19.0,-100.00,West,278,2.0,11.0,20,-99.99,,,0.01,551.000000,,2013-01-15 18:43:00,
2013-01-15 10:53:00,60.0,19.0,-100.00,West,278,2.0,11.0,20,-99.99,,,0.01,551.000000,,2013-01-15 18:53:00,
2013-01-15 11:43:00,54.0,19.0,-100.00,WSW,248,7.0,11.0,25,-99.99,,,0.01,504.000000,,2013-01-15 19:43:00,
2013-01-15 11:53:00,54.0,19.0,-100.00,WSW,248,7.0,11.0,25,-99.99,,,0.01,504.000000,,2013-01-15 19:53:00,
2013-01-15 12:03:00,54.0,19.0,-100.00,WSW,248,7.0,11.0,25,-99.99,,,0.01,504.000000,,2013-01-15 20:03:00,
2013-01-15 12:12:00,54.0,19.0,-100.00,WSW,248,7.0,11.0,25,-99.99,,,0.01,504.000000,,2013-01-15 20:12:00,
2013-01-15 12:22:00,54.0,19.0,-100.00,WSW,248,7.0,11.0,25,-99.99,,,0.01,504.000000,,2013-01-15 20:22:00,
2013-01-15 12:43:00,62.0,17.0,-100.00,ENE,72,3.0,14.0,17,0.06,,,0.07,555.000000,,2013-01-15 20:43:00,
2013-01-15 12:53:00,62.0,17.0,-100.00,ENE,72,3.0,14.0,17,0.06,,,0.07,555.000000,,2013-01-15 20:53:00,
2013-01-15 13:43:00,60.0,16.0,-100.00,SE,143,4.0,13.0,18,-99.99,,,0.15,731.000000,,2013-01-15 21:43:00,
2013-01-15 13:53:00,60.0,16.0,-100.00,SE,143,4.0,13.0,18,-99.99,,,0.15,731.000000,,2013-01-15 21:53:00,
2013-01-15 14:43:00,58.0,16.0,-100.00,WSW,238,4.0,7.0,19,-99.99,,,0.20,424.000000,,2013-01-15 22:43:00,
2013-01-15 14:53:00,58.0,16.0,-100.00,WSW,238,4.0,7.0,19,-99.99,,,0.20,424.000000,,2013-01-15 22:53:00,
2013-01-15 15:02:00,58.0,16.0,-100.00,WSW,238,4.0,7.0,19,-99.99,,,0.20,424.000000,,2013-01-15 23:02:00,
2013-01-15 15:43:00,54.0,17.0,-100.00,West,268,6.0,11.0,23,0.02,,,0.22,300.000000,,2013-01-15 23:43:00,
2013-01-15 15:53:00,54.0,17.0,-100.00,West,268,6.0,11.0,23,0.02,,,0.22,300.000000,,2013-01-15 23:53:00,
2013-01-15 16:02:00,54.0,17.0,-100.00,West,268,6.0,11.0,23,0.02,,,0.22,300.000000,,2013-01-16 00:02:00,
2013-01-15 16:12:00,54.0,17.0,-100.00,West,268,6.0,11.0,23,0.02,,,0.22,300.000000,,2013-01-16 00:12:00,
2013-01-15 16:22:00,54.0,17.0,-100.00,West,268,6.0,11.0,23,0.02,,,0.22,300.000000,,2013-01-16 00:22:00,
2013-01-15 16:43:00,53.0,15.0,-100.00,NW,305,4.0,11.0,22,0.00,,,0.22,246.000000,,2013-01-16 00:43:00,
2013-01-15 16:53:00,53.0,15.0,-100.00,NW,305,4.0,11.0,22,0.00,,,0.22,246.000000,,2013-01-16 00:53:00,
2013-01-15 17:02:00,53.0,15.0,-100.00,NW,305,4.0,11.0,22,0.00,,,0.22,246.000000,,2013-01-16 01:02:00,
2013-01-15 17:43:00,46.0,16.0,-100.00,WSW,245,4.0,11.0,29,0.00,,,0.21,28.000000,,2013-01-16 01:43:00,
2013-01-15 17:53:00,46.0,16.0,-100.00,WSW,245,4.0,11.0,29,0.00,,,0.21,28.000000,,2013-01-16 01:53:00,
2013-01-15 18:02:00,46.0,16.0,-100.00,WSW,245,4.0,11.0,29,0.00,,,0.21,28.000000,,2013-01-16 02:02:00,
2013-01-15 18:12:00,46.0,16.0,-100.00,WSW,245,4.0,11.0,29,0.00,,,0.21,28.000000,,2013-01-16 02:12:00,
2013-01-15 18:22:00,46.0,16.0,-100.00,WSW,245,4.0,11.0,29,0.00,,,0.21,28.000000,,2013-01-16 02:22:00,
2013-01-15 18:43:00,45.0,15.0,-100.00,SSW,197,5.0,14.0,29,0.00,,,0.21,0.000000,,2013-01-16 02:43:00,
2013-01-15 18:53:00,45.0,15.0,-100.00,SSW,197,5.0,14.0,29,0.00,,,0.21,0.000000,,2013-01-16 02:53:00,
2013-01-15 19:02:00,45.0,15.0,-100.00,SSW,197,5.0,14.0,29,0.00,,,0.21,0.000000,,2013-01-16 03:02:00,
2013-01-15 19:11:00,45.0,15.0,-100.00,SSW,197,5.0,14.0,29,0.00,,,0.21,0.000000,,2013-01-16 03:11:00,
2013-01-15 19:22:00,45.0,15.0,-100.00,SSW,197,5.0,14.0,29,0.00,,,0.21,0.000000,,2013-01-16 03:22:00,
2013-01-15 19:43:00,44.0,15.0,-100.00,WNW,282,5.0,16.0,31,0.00,,,0.21,0.000000,,2013-01-16 03:43:00,
2013-01-15 19:53:00,44.0,15.0,-100.00,WNW,282,5.0,16.0,31,0.00,,,0.21,0.000000,,2013-01-16 03:53:00,
2013-01-15 20:02:00,44.0,15.0,-100.00,WNW,282,5.0,16.0,31,0.00,,,0.21,0.000000,,2013-01-16 04:02:00,
2013-01-15 20:12:00,44.0,15.0,-100.00,WNW,282,5.0,16.0,31,0.00,,,0.21,0.000000,,2013-01-16 04:12:00,
2013-01-15 20:22:00,44.0,15.0,-100.00,WNW,282,5.0,16.0,31,0.00,,,0.21,0.000000,,2013-01-16 04:22:00,
2013-01-15 20:42:00,43.0,15.0,-100.00,ESE,121,13.0,30.0,32,0.00,,,0.21,0.000000,,2013-01-16 04:42:00,
2013-01-15 20:52:00,43.0,15.0,-100.00,ESE,121,13.0,30.0,32,0.00,,,0.21,0.000000,,2013-01-16 04:52:00,
2013-01-15 21:03:00,43.0,15.0,-100.00,ESE,121,13.0,30.0,32,0.00,,,0.21,0.000000,,2013-01-16 05:03:00,
2013-01-15 21:12:00,43.0,15.0,-100.00,ESE,121,13.0,30.0,32,0.00,,,0.21,0.000000,,2013-01-16 05:12:00,
2013-01-15 21:22:00,43.0,15.0,-100.00,ESE,121,13.0,30.0,32,0.00,,,0.21,0.000000,,2013-01-16 05:22:00,
2013-01-15 21:42:00,43.0,16.0,-100.00,ESE,108,18.0,40.0,33,0.00,,,0.21,0.000000,,2013-01-16 05:42:00,
2013-01-15 21:53:00,43.0,16.0,-100.00,ESE,108,18.0,40.0,33,0.00,,,0.21,0.000000,,2013-01-16 05:53:00,
2013-01-15 22:02:00,43.0,16.0,-100.00,ESE,108,18.0,40.0,33,0.00,,,0.21,0.000000,,2013-01-16 06:02:00,
2013-01-15 22:11:00,43.0,16.0,-100.00,ESE,108,18.0,40.0,33,0.00,,,0.21,0.000000,,2013-01-16 06:11:00,
2013-01-15 22:22:00,43.0,16.0,-100.00,ESE,108,18.0,40.0,33,0.00,,,0.21,0.000000,,2013-01-16 06:22:00,
2013-01-15 22:43:00,42.0,14.0,-100.00,SE,145,15.0,30.0,32,0.00,,,0.21,0.000000,,2013-01-16 06:43:00,
2013-01-15 22:53:00,42.0,14.0,-100.00,SE,145,15.0,30.0,32,0.00,,,0.21,0.000000,,2013-01-16 06:53:00,
2013-01-15 23:02:00,42.0,14.0,-100.00,SE,145,15.0,30.0,32,0.00,,,0.21,0.000000,,2013-01-16 07:02:00,
2013-01-15 23:11:00,42.0,14.0,-100.00,SE,145,15.0,30.0,32,0.00,,,0.21,0.000000,,2013-01-16 07:11:00,
2013-01-15 23:22:00,42.0,14.0,-100.00,SE,145,15.0,30.0,32,0.00,,,0.21,0.000000,,2013-01-16 07:22:00,
2013-01-15 23:42:00,43.0,14.0,-100.00,SE,135,16.0,32.0,30,0.00,,,0.21,0.000000,,2013-01-16 07:42:00,
2013-01-15 23:52:00,43.0,14.0,-100.00,SE,135,16.0,32.0,30,0.00,,,0.21,0.000000,,2013-01-16 07:52:00,